createdAt,value
2022-12-13T00:01:33.708Z,5.00
2022-12-13T00:04:01.511Z,5.70
2022-12-13T00:06:28.433Z,4.65
2022-12-13T00:08:54.913Z,5.07
2022-12-13T00:11:21.479Z,4.60
2022-12-13T00:13:48.108Z,5.35
2022-12-13T00:16:19.085Z,5.95
2022-12-13T00:18:49.525Z,5.68
2022-12-13T00:21:17.887Z,5.75
2022-12-13T00:23:44.461Z,6.18
2022-12-13T00:26:11.981Z,6.15
2022-12-13T00:28:38.953Z,5.80
2022-12-13T00:31:34.285Z,5.93
2022-12-13T00:33:53.383Z,5.30
2022-12-13T00:36:19.962Z,5.75
2022-12-13T00:38:46.444Z,5.25
2022-12-13T00:41:17.310Z,6.07
2022-12-13T00:43:44.233Z,5.75
2022-12-13T00:46:14.938Z,5.75
2022-12-13T00:48:41.966Z,5.95
2022-12-13T00:51:09.130Z,6.32
2022-12-13T00:53:36.206Z,6.43
2022-12-13T00:56:02.972Z,5.75
2022-12-13T00:58:29.348Z,5.90
2022-12-13T01:01:06.072Z,5.82
2022-12-13T01:03:32.856Z,6.30
2022-12-13T01:06:16.257Z,7.18
2022-12-13T01:08:43.334Z,6.40
2022-12-13T01:11:09.915Z,7.45
2022-12-13T01:13:36.944Z,7.22
2022-12-13T01:16:04.640Z,8.77
2022-12-13T01:18:31.360Z,8.45
2022-12-13T01:21:01.969Z,7.47
2022-12-13T01:23:28.851Z,6.57
2022-12-13T01:25:55.403Z,7.30
2022-12-13T01:28:22.232Z,7.10
2022-12-13T01:30:55.745Z,7.55
2022-12-13T01:33:22.711Z,6.85
2022-12-13T01:35:49.112Z,8.95
2022-12-13T01:38:16.264Z,8.98
2022-12-13T01:40:43.828Z,9.63
2022-12-13T01:43:14.728Z,9.38
2022-12-13T01:45:41.882Z,8.80
2022-12-13T01:48:16.156Z,9.30
2022-12-13T01:50:44.864Z,7.90
2022-12-13T01:53:13.655Z,8.25
2022-12-13T01:55:42.774Z,9.40
2022-12-13T01:58:09.772Z,11.15
2022-12-13T02:00:36.155Z,10.50
2022-12-13T02:03:02.718Z,10.05
2022-12-13T02:05:43.174Z,8.52
2022-12-13T02:08:11.106Z,8.70
2022-12-13T02:10:37.857Z,8.98
2022-12-13T02:13:04.781Z,10.77
2022-12-13T02:15:51.426Z,9.20
2022-12-13T02:18:29.798Z,8.82
2022-12-13T02:21:08.119Z,9.15
2022-12-13T02:23:46.781Z,8.27
2022-12-13T02:26:31.890Z,8.15
2022-12-13T02:29:30.303Z,7.80
2022-12-13T02:32:16.212Z,8.05
2022-12-13T02:37:18.736Z,7.80
2022-12-13T02:39:51.196Z,7.55
2022-12-13T02:42:22.419Z,7.65
2022-12-13T02:44:55.452Z,8.13
2022-12-13T02:47:23.099Z,7.68
2022-12-13T02:49:55.333Z,7.18
2022-12-13T02:52:24.868Z,7.03
2022-12-13T02:54:51.175Z,7.03
2022-12-13T02:57:37.281Z,7.32
2022-12-13T03:00:09.009Z,7.40
2022-12-13T03:02:54.248Z,7.00
2022-12-13T03:05:55.175Z,8.02
2022-12-13T03:08:44.549Z,7.35
2022-12-13T03:11:13.017Z,7.35
2022-12-13T03:13:39.367Z,7.90
2022-12-13T03:16:09.247Z,7.93
2022-12-13T03:18:35.697Z,6.88
2022-12-13T03:21:05.988Z,6.97
2022-12-13T03:23:32.436Z,6.90
2022-12-13T03:26:06.414Z,6.78
2022-12-13T03:28:32.737Z,7.53
2022-12-13T03:30:59.276Z,7.47
2022-12-13T03:33:25.695Z,7.38
2022-12-13T03:35:52.140Z,8.00
2022-12-13T03:38:21.469Z,7.93
2022-12-13T03:40:49.315Z,7.93
2022-12-13T03:43:22.361Z,8.73
2022-12-13T03:45:49.266Z,7.45
2022-12-13T03:48:22.109Z,7.43
2022-12-13T03:50:50.162Z,6.57
2022-12-13T03:53:23.393Z,7.32
2022-12-13T03:56:00.842Z,6.90
2022-12-13T03:58:35.975Z,7.88
2022-12-13T04:01:13.919Z,7.60
2022-12-13T04:03:40.906Z,7.07
2022-12-13T04:06:07.975Z,7.38
2022-12-13T04:08:35.093Z,6.53
2022-12-13T04:11:23.568Z,7.40
2022-12-13T04:13:50.078Z,6.80
2022-12-13T04:16:16.554Z,6.55
2022-12-13T04:18:43.320Z,6.88
2022-12-13T04:21:09.719Z,6.57
2022-12-13T04:23:36.076Z,6.80
2022-12-13T04:26:02.428Z,7.60
2022-12-13T04:28:28.797Z,6.88
2022-12-13T04:30:55.092Z,6.20
2022-12-13T04:33:22.022Z,7.47
2022-12-13T04:35:48.577Z,7.50
2022-12-13T04:38:14.932Z,7.57
2022-12-13T04:40:41.315Z,7.68
2022-12-13T04:43:07.643Z,6.75
2022-12-13T04:45:34.087Z,6.75
2022-12-13T04:48:00.638Z,7.78
2022-12-13T04:50:27.110Z,7.78
2022-12-13T04:52:53.463Z,6.97
2022-12-13T04:55:19.837Z,7.10
2022-12-13T04:57:46.172Z,6.70
2022-12-13T05:00:15.482Z,7.50
2022-12-13T05:02:42.207Z,6.63
2022-12-13T05:05:09.346Z,7.60
2022-12-13T05:07:36.083Z,7.88
2022-12-13T05:10:09.728Z,7.10
2022-12-13T05:12:36.049Z,7.10
2022-12-13T05:15:02.439Z,7.28
2022-12-13T05:17:28.786Z,7.07
2022-12-13T05:19:55.347Z,6.95
2022-12-13T05:22:21.639Z,7.53
2022-12-13T05:24:48.222Z,6.65
2022-12-13T05:27:24.682Z,7.60
2022-12-13T05:30:05.095Z,7.45
2022-12-13T05:32:33.828Z,7.20
2022-12-13T05:35:10.757Z,7.75
2022-12-13T05:37:37.106Z,6.40
2022-12-13T05:40:03.666Z,7.43
2022-12-13T05:42:30.075Z,6.93
2022-12-13T05:44:56.468Z,7.88
2022-12-13T05:47:22.791Z,7.50
2022-12-13T05:49:49.168Z,7.65
2022-12-13T05:52:16.829Z,7.88
2022-12-13T05:54:43.189Z,7.40
2022-12-13T05:57:09.495Z,6.53
2022-12-13T05:59:35.804Z,8.32
2022-12-13T06:02:02.262Z,7.50
2022-12-13T06:04:28.886Z,6.93
2022-12-13T06:06:55.324Z,6.90
2022-12-13T06:09:21.723Z,7.80
2022-12-13T06:11:48.368Z,7.53
2022-12-13T06:14:22.154Z,7.45
2022-12-13T06:16:49.329Z,7.15
2022-12-13T06:19:15.757Z,6.60
2022-12-13T06:21:46.376Z,7.70
2022-12-13T06:24:13.881Z,7.38
2022-12-13T06:26:45.247Z,7.93
2022-12-13T06:29:12.331Z,7.30
2022-12-13T06:31:38.688Z,6.35
2022-12-13T06:34:14.820Z,6.72
2022-12-13T06:36:42.258Z,5.45
2022-12-13T06:39:08.642Z,7.00
2022-12-13T06:41:36.388Z,6.03
2022-12-13T06:44:02.789Z,6.70
2022-12-13T06:46:29.340Z,6.70
2022-12-13T06:48:56.906Z,7.45
2022-12-13T06:51:23.317Z,6.93
2022-12-13T06:54:00.988Z,7.32
2022-12-13T06:56:27.460Z,6.55
2022-12-13T06:58:53.826Z,6.35
2022-12-13T07:01:28.210Z,7.32
2022-12-13T07:04:03.767Z,6.88
2022-12-13T07:06:30.085Z,7.93
2022-12-13T07:08:57.170Z,7.50
2022-12-13T07:11:24.758Z,8.98
2022-12-13T07:13:51.915Z,8.60
2022-12-13T07:16:18.917Z,7.80
2022-12-13T07:18:45.399Z,9.70
2022-12-13T07:21:21.751Z,9.77
2022-12-13T07:23:48.379Z,8.20
2022-12-13T07:26:21.514Z,8.68
2022-12-13T07:28:52.927Z,9.48
2022-12-13T07:31:21.835Z,9.40
2022-12-13T07:33:48.269Z,7.80
2022-12-13T07:36:16.104Z,8.38
2022-12-13T07:38:42.782Z,7.20
2022-12-13T07:41:11.694Z,6.63
2022-12-13T07:43:38.450Z,7.07
2022-12-13T07:46:06.417Z,7.57
2022-12-13T07:48:33.490Z,7.55
2022-12-13T07:51:07.352Z,8.80
2022-12-13T07:53:34.289Z,7.85
2022-12-13T07:56:08.496Z,9.85
2022-12-13T07:58:35.422Z,9.60
2022-12-13T08:01:04.126Z,10.02
2022-12-13T08:03:30.671Z,9.75
2022-12-13T08:06:01.559Z,9.90
2022-12-13T08:08:31.215Z,10.23
2022-12-13T08:11:05.669Z,10.25
2022-12-13T08:13:32.284Z,9.77
2022-12-13T08:16:02.347Z,10.50
2022-12-13T08:18:29.388Z,11.18
2022-12-13T08:20:59.303Z,9.63
2022-12-13T08:23:25.795Z,10.30
2022-12-13T08:25:52.899Z,9.85
2022-12-13T08:28:19.296Z,8.32
2022-12-13T08:30:45.920Z,7.88
2022-12-13T08:33:12.485Z,8.35
2022-12-13T08:35:38.852Z,7.65
2022-12-13T08:38:07.718Z,8.07
2022-12-13T08:40:35.003Z,8.23
2022-12-13T08:43:01.510Z,8.75
2022-12-13T08:45:28.002Z,8.25
2022-12-13T08:47:54.416Z,8.48
2022-12-13T08:50:20.792Z,8.35
2022-12-13T08:52:47.147Z,9.30
2022-12-13T08:55:14.505Z,9.05
2022-12-13T08:57:41.537Z,9.60
2022-12-13T09:00:10.964Z,8.80
2022-12-13T09:02:38.065Z,9.07
2022-12-13T09:05:05.472Z,10.63
2022-12-13T09:07:31.846Z,10.82
2022-12-13T09:09:58.435Z,13.23
2022-12-13T09:12:33.775Z,14.68
2022-12-13T09:15:12.747Z,14.15
2022-12-13T09:17:51.997Z,10.05
2022-12-13T09:20:32.557Z,10.65
2022-12-13T09:23:06.159Z,11.73
2022-12-13T09:25:40.832Z,11.93
2022-12-13T09:28:08.005Z,9.95
2022-12-13T09:30:35.050Z,9.10
2022-12-13T09:33:28.138Z,8.30
2022-12-13T09:35:48.225Z,7.93
2022-12-13T09:38:14.634Z,8.02
2022-12-13T09:40:43.576Z,8.30
2022-12-13T09:43:23.718Z,7.43
2022-12-13T09:46:01.024Z,8.57
2022-12-13T09:48:28.328Z,8.48
2022-12-13T09:51:17.071Z,7.80
2022-12-13T09:53:49.022Z,7.78
2022-12-13T09:56:17.393Z,7.65
2022-12-13T09:58:43.772Z,7.75
2022-12-13T10:01:12.006Z,7.38
2022-12-13T10:03:40.782Z,7.15
2022-12-13T10:06:24.117Z,7.78
2022-12-13T10:08:50.571Z,7.18
2022-12-13T10:11:32.675Z,6.63
2022-12-13T10:14:02.552Z,5.20
2022-12-13T10:16:36.079Z,6.40
2022-12-13T10:19:29.483Z,7.63
2022-12-13T10:22:01.254Z,6.55
2022-12-13T10:24:37.462Z,6.85
2022-12-13T10:27:21.372Z,6.78
2022-12-13T10:30:00.229Z,7.65
2022-12-13T10:32:26.783Z,6.65
2022-12-13T10:34:55.396Z,7.38
2022-12-13T10:37:31.515Z,7.35
2022-12-13T10:39:58.786Z,7.00
2022-12-13T10:42:30.541Z,7.07
2022-12-13T10:45:26.539Z,7.47
2022-12-13T10:47:53.024Z,7.55
2022-12-13T10:50:37.991Z,6.80
2022-12-13T10:53:04.572Z,7.20
2022-12-13T10:55:32.498Z,6.88
2022-12-13T10:58:03.521Z,6.50
2022-12-13T11:00:31.453Z,6.65
2022-12-13T11:02:57.815Z,6.50
2022-12-13T11:05:33.376Z,6.25
2022-12-13T11:08:27.120Z,6.28
2022-12-13T11:10:58.192Z,6.22
2022-12-13T11:13:31.786Z,6.45
2022-12-13T11:15:58.214Z,6.40
2022-12-13T11:18:26.094Z,6.25
2022-12-13T11:21:02.852Z,6.18
2022-12-13T11:23:34.817Z,6.60
2022-12-13T11:26:07.881Z,5.85
2022-12-13T11:28:49.439Z,6.03
2022-12-13T11:31:18.671Z,5.88
2022-12-13T11:33:47.639Z,6.28
2022-12-13T11:36:33.715Z,5.68
2022-12-13T11:39:18.991Z,5.77
2022-12-13T11:41:57.843Z,6.05
2022-12-13T11:44:27.784Z,6.40
2022-12-13T11:46:55.335Z,7.13
2022-12-13T11:49:27.797Z,6.30
2022-12-13T11:51:57.292Z,6.28
2022-12-13T11:54:27.264Z,6.00
2022-12-13T11:57:01.160Z,6.00
2022-12-13T11:59:29.689Z,6.22
2022-12-13T12:02:04.948Z,5.78
2022-12-13T12:07:31.858Z,5.65
2022-12-13T12:10:03.346Z,6.40
2022-12-13T12:12:34.318Z,7.15
2022-12-13T12:15:05.758Z,7.80
2022-12-13T12:17:42.609Z,7.05
2022-12-13T12:20:12.286Z,7.43
2022-12-13T12:22:41.813Z,8.52
2022-12-13T12:25:08.197Z,9.38
2022-12-13T12:27:53.603Z,8.75
2022-12-13T12:30:24.511Z,7.47
2022-12-13T12:32:58.829Z,7.18
2022-12-13T12:35:46.419Z,7.50
2022-12-13T12:38:31.936Z,6.90
2022-12-13T12:41:16.460Z,7.72
2022-12-13T12:43:44.719Z,6.68
2022-12-13T12:46:18.733Z,6.10
2022-12-13T12:49:01.298Z,6.05
2022-12-13T12:51:34.706Z,7.38
2022-12-13T12:54:19.456Z,7.40
2022-12-13T12:56:59.621Z,5.90
2022-12-13T12:59:34.867Z,7.53
2022-12-13T13:04:33.124Z,6.30
2022-12-13T13:07:02.565Z,6.68
2022-12-13T13:09:30.166Z,7.70
2022-12-13T13:11:57.247Z,7.47
2022-12-13T13:14:35.049Z,6.15
2022-12-13T13:17:21.461Z,5.75
2022-12-13T13:19:48.632Z,4.88
2022-12-13T13:22:31.330Z,5.80
2022-12-13T13:25:00.957Z,5.85
2022-12-13T13:27:29.418Z,5.53
2022-12-13T13:30:05.125Z,5.63
2022-12-13T13:32:31.770Z,6.38
2022-12-13T13:35:16.808Z,6.85
2022-12-13T13:37:47.386Z,13.32
2022-12-13T13:40:31.074Z,12.13
2022-12-13T13:43:04.022Z,9.75
2022-12-13T13:45:31.504Z,8.43
2022-12-13T13:48:03.754Z,7.72
2022-12-13T13:50:56.603Z,7.63
2022-12-13T13:53:50.717Z,9.50
2022-12-13T13:56:29.454Z,8.38
2022-12-13T13:59:14.580Z,13.35
2022-12-13T14:01:50.307Z,9.80
2022-12-13T14:04:28.896Z,10.20
2022-12-13T14:07:14.176Z,13.25
2022-12-13T14:09:55.632Z,12.07
2022-12-13T14:12:22.006Z,9.65
2022-12-13T14:15:07.294Z,9.98
2022-12-13T14:17:45.890Z,10.00
2022-12-13T14:20:27.651Z,10.40
2022-12-13T14:23:21.529Z,9.85
2022-12-13T14:25:54.519Z,8.90
2022-12-13T14:28:33.243Z,9.07
2022-12-13T14:30:59.973Z,8.63
2022-12-13T14:33:27.104Z,9.52
2022-12-13T14:35:55.062Z,9.63
2022-12-13T14:38:23.299Z,13.30
2022-12-13T14:40:51.517Z,13.00
2022-12-13T14:43:27.295Z,12.88
2022-12-13T14:45:58.915Z,13.35
2022-12-13T14:48:28.392Z,11.60
2022-12-13T14:50:56.250Z,13.50
2022-12-13T14:53:30.663Z,13.68
2022-12-13T14:56:03.680Z,13.82
2022-12-13T14:58:30.073Z,12.98
2022-12-13T15:00:59.375Z,12.07
2022-12-13T15:03:27.359Z,11.75
2022-12-13T15:05:58.145Z,10.95
2022-12-13T15:08:24.948Z,11.82
2022-12-13T15:10:54.170Z,11.27
2022-12-13T15:13:20.550Z,10.75
2022-12-13T15:15:52.328Z,10.77
2022-12-13T15:18:23.902Z,12.02
2022-12-13T15:20:51.138Z,11.38
2022-12-13T15:23:30.097Z,11.40
2022-12-13T15:25:59.184Z,11.57
2022-12-13T15:28:29.134Z,10.07
2022-12-13T15:30:57.078Z,10.27
2022-12-13T15:33:33.519Z,10.25
2022-12-13T15:36:01.727Z,9.57
2022-12-13T15:38:29.339Z,9.40
2022-12-13T15:40:56.252Z,12.02
2022-12-13T15:43:25.473Z,10.43
2022-12-13T15:45:52.880Z,10.10
2022-12-13T15:48:22.409Z,9.55
2022-12-13T15:50:49.242Z,9.10
2022-12-13T15:53:25.252Z,10.32
2022-12-13T15:55:51.998Z,10.48
2022-12-13T15:58:35.304Z,9.82
2022-12-13T16:01:05.760Z,10.25
2022-12-13T16:03:42.233Z,11.73
2022-12-13T16:06:09.588Z,9.48
2022-12-13T16:08:37.953Z,11.00
2022-12-13T16:11:04.681Z,9.60
2022-12-13T16:13:32.107Z,10.05
2022-12-13T16:16:00.478Z,9.70
2022-12-13T16:18:58.101Z,12.00
2022-12-13T16:21:25.617Z,9.77
2022-12-13T16:23:52.058Z,10.02
2022-12-13T16:26:22.989Z,9.15
2022-12-13T16:28:49.479Z,8.73
2022-12-13T16:31:23.531Z,9.55
2022-12-13T16:33:50.063Z,8.93
2022-12-13T16:36:16.569Z,12.60
2022-12-13T16:38:42.964Z,19.10
2022-12-13T16:41:09.991Z,17.88
2022-12-13T16:43:46.008Z,11.70
2022-12-13T16:47:17.954Z,12.50
2022-12-13T16:49:01.161Z,9.82
2022-12-13T16:51:27.776Z,9.50
2022-12-13T16:53:56.237Z,9.75
2022-12-13T16:56:22.695Z,9.75
2022-12-13T16:58:50.319Z,10.35
2022-12-13T17:01:20.635Z,11.73
2022-12-13T17:03:47.394Z,11.90
2022-12-13T17:06:14.732Z,11.73
2022-12-13T17:08:41.185Z,11.13
2022-12-13T17:11:14.628Z,10.70
2022-12-13T17:13:45.030Z,12.63
2022-12-13T17:16:11.542Z,11.48
2022-12-13T17:18:38.017Z,11.27
2022-12-13T17:21:08.126Z,10.50
2022-12-13T17:23:34.523Z,10.65
2022-12-13T17:26:07.762Z,13.13
2022-12-13T17:28:34.466Z,14.35
2022-12-13T17:31:12.374Z,13.75
2022-12-13T17:33:39.138Z,14.15
2022-12-13T17:36:05.743Z,13.93
2022-12-13T17:38:32.175Z,12.57
2022-12-13T17:41:00.726Z,11.40
2022-12-13T17:43:34.259Z,13.10
2022-12-13T17:46:02.196Z,11.95
2022-12-13T17:48:34.187Z,12.20
2022-12-13T17:51:04.283Z,13.05
2022-12-13T17:53:30.867Z,12.93
2022-12-13T17:56:01.760Z,12.38
2022-12-13T17:58:29.270Z,11.55
2022-12-13T18:00:55.970Z,13.05
2022-12-13T18:03:22.447Z,12.00
2022-12-13T18:05:55.781Z,12.48
2022-12-13T18:08:22.146Z,13.18
2022-12-13T18:11:30.778Z,13.38
2022-12-13T18:13:45.554Z,12.15
2022-12-13T18:16:13.701Z,12.80
2022-12-13T18:18:40.526Z,13.35
2022-12-13T18:21:08.419Z,13.13
2022-12-13T18:23:35.334Z,14.63
2022-12-13T18:26:02.358Z,12.65
2022-12-13T18:28:29.256Z,13.98
2022-12-13T18:30:59.395Z,12.65
2022-12-13T18:33:26.188Z,12.73
2022-12-13T18:35:52.826Z,15.35
2022-12-13T18:38:19.261Z,76.53
2022-12-13T18:40:45.778Z,43.78
2022-12-13T18:43:12.254Z,22.65
2022-12-13T18:45:38.693Z,29.52
2022-12-13T18:48:05.270Z,22.33
2022-12-13T18:50:32.775Z,18.42
2022-12-13T18:52:59.269Z,18.65
2022-12-13T18:55:25.681Z,16.73
2022-12-13T18:57:52.659Z,18.02
2022-12-13T19:00:19.356Z,37.15
2022-12-13T19:02:45.847Z,31.25
2022-12-13T19:05:12.373Z,17.08
2022-12-13T19:07:38.735Z,20.65
2022-12-13T19:10:05.465Z,19.25
2022-12-13T19:12:32.190Z,18.33
2022-12-13T19:14:58.907Z,17.55
2022-12-13T19:17:25.516Z,17.08
2022-12-13T19:19:52.037Z,16.75
2022-12-13T19:22:18.694Z,17.60
2022-12-13T19:24:45.344Z,17.42
2022-12-13T19:27:11.729Z,14.80
2022-12-13T19:29:38.081Z,17.15
2022-12-13T19:32:04.588Z,15.98
2022-12-13T19:34:31.001Z,16.08
2022-12-13T19:37:00.320Z,17.20
2022-12-13T19:39:30.944Z,12.02
2022-12-13T19:41:57.363Z,14.55
2022-12-13T19:44:23.951Z,14.55
2022-12-13T19:46:51.095Z,14.75
2022-12-13T19:49:19.361Z,15.18
2022-12-13T19:51:45.975Z,14.40
2022-12-13T19:54:12.379Z,14.18
2022-12-13T19:56:38.801Z,13.65
2022-12-13T19:59:05.323Z,14.50
2022-12-13T20:01:31.834Z,13.32
2022-12-13T20:03:58.403Z,13.35
2022-12-13T20:06:24.998Z,12.30
2022-12-13T20:08:51.392Z,13.68
2022-12-13T20:11:19.653Z,12.70
2022-12-13T20:13:46.773Z,13.07
2022-12-13T20:16:21.282Z,13.82
2022-12-13T20:18:48.768Z,12.82
2022-12-13T20:21:15.650Z,13.38
2022-12-13T20:23:44.899Z,13.45
2022-12-13T20:26:17.445Z,13.13
2022-12-13T20:28:43.923Z,12.88
2022-12-13T20:31:11.625Z,14.02
2022-12-13T20:33:38.625Z,13.48
2022-12-13T20:38:53.733Z,11.15
2022-12-13T20:41:20.431Z,11.55
2022-12-13T20:43:48.400Z,11.02
2022-12-13T20:46:15.478Z,13.10
2022-12-13T20:48:43.931Z,12.30
2022-12-13T20:51:11.373Z,12.23
2022-12-13T20:53:38.788Z,12.43
2022-12-13T20:56:05.878Z,11.52
2022-12-13T20:58:36.827Z,10.77
2022-12-13T21:01:06.458Z,10.05
2022-12-13T21:03:32.981Z,12.85
2022-12-13T21:05:59.313Z,13.48
2022-12-13T21:08:44.703Z,13.07
2022-12-13T21:11:26.483Z,14.52
2022-12-13T21:14:16.982Z,12.60
2022-12-13T21:16:51.345Z,12.52
2022-12-13T21:19:19.619Z,10.25
2022-12-13T21:21:46.041Z,12.70
2022-12-13T21:24:13.559Z,12.95
2022-12-13T21:26:39.935Z,12.75
2022-12-13T21:29:07.455Z,13.23
2022-12-13T21:31:34.530Z,11.73
2022-12-13T21:34:02.007Z,12.38
2022-12-13T21:36:29.482Z,13.27
2022-12-13T21:38:57.272Z,16.80
2022-12-13T21:41:23.893Z,14.52
2022-12-13T21:43:52.078Z,13.65
2022-12-13T21:46:19.818Z,13.50
2022-12-13T21:48:46.669Z,12.70
2022-12-13T21:51:14.711Z,11.13
2022-12-13T21:53:41.357Z,12.85
2022-12-13T21:56:27.549Z,14.00
2022-12-13T21:59:12.701Z,11.90
2022-12-13T22:02:04.327Z,12.02
2022-12-13T22:04:30.994Z,14.40
2022-12-13T22:06:57.463Z,12.75
2022-12-13T22:09:24.086Z,14.98
2022-12-13T22:11:50.469Z,13.68
2022-12-13T22:14:16.932Z,12.55
2022-12-13T22:16:43.393Z,13.38
2022-12-13T22:19:11.805Z,13.77
2022-12-13T22:21:38.434Z,16.00
2022-12-13T22:24:05.013Z,15.30
2022-12-13T22:26:31.503Z,16.08
2022-12-13T22:28:58.529Z,15.32
2022-12-13T22:31:29.648Z,17.08
2022-12-13T22:33:59.322Z,15.27
2022-12-13T22:36:25.961Z,14.07
2022-12-13T22:38:52.846Z,16.67
2022-12-13T22:41:19.417Z,18.60
2022-12-13T22:43:46.219Z,17.70
2022-12-13T22:46:16.707Z,18.50
2022-12-13T22:48:43.224Z,16.50
2022-12-13T22:51:16.292Z,16.77
2022-12-13T22:53:44.464Z,17.27
2022-12-13T22:56:15.521Z,16.13
2022-12-13T22:58:42.099Z,15.00
2022-12-13T23:01:17.036Z,15.68
2022-12-13T23:03:43.789Z,15.68
2022-12-13T23:06:10.276Z,16.00
2022-12-13T23:08:43.167Z,15.55
2022-12-13T23:11:28.520Z,15.18
2022-12-13T23:16:22.717Z,14.07
2022-12-13T23:18:49.478Z,14.25
2022-12-13T23:21:16.778Z,13.80
2022-12-13T23:23:43.537Z,15.20
2022-12-13T23:26:09.941Z,13.07
2022-12-13T23:28:36.565Z,12.32
2022-12-13T23:31:03.662Z,12.13
2022-12-13T23:33:30.307Z,15.20
2022-12-13T23:36:04.989Z,12.70
2022-12-13T23:38:35.843Z,13.48
2022-12-13T23:41:02.241Z,14.63
2022-12-13T23:43:30.277Z,12.25
2022-12-13T23:45:57.563Z,12.70
2022-12-13T23:48:26.998Z,11.32
2022-12-13T23:50:53.755Z,12.10
2022-12-13T23:53:20.556Z,11.20
2022-12-13T23:55:48.915Z,11.25
2022-12-13T23:58:16.497Z,10.18
